Strona główna
METAR-TAF:

METAR-TAF

Lotnisko :

Port lotniczy Mendoza

Mendoza, Argentyna

Szerokość geograficzna: 32-50S, Długość geograficzna: 068-47W, wysokość: 705 m

Aktualna obserwacja pogody

Raport powstał 37 minut temu, godzina 15:00 UTC
Wiatr 5 kt od północ
Temperatura 11°C
Wilgotność 66%
Ciśnienie 1014 hPa
Widzialność 10 km lub więcej
Brak chmur poniżej 1500 m i brak chmur cumulonimbus

METAR: SAME 171500Z 36005KT CAVOK 11/05 Q1014

czas: 12:37 (15:37 UTC)

Prognoza

Raport powstał 4 godziny i 37 minut temu, godzina 11:00 UTC
Prognoza ważna od 17 godzina 12 UTC do 18 godzina 12 UTC
Wiatr 5 kt od północny wschód
Widzialność 10 km lub więcej
Mało chmury na wysokości 4000 ft
Rozproszone chmury na wysokości 9000 ft
Prawdopodobieństwo 40% :
Przejściowo
od 17 godzina 12 UTC do 17 godzina 14 UTC
Wiatr kt od północ
Widzialność: 5000 m
Przerywane chmury na wysokości 9000 ft

TAF: SAME 171100Z 1712/1812 05005KT 9999 FEW040 SCT090 TX19/1720Z TN01/1810Z PROB40 TEMPO 1712/1714 00000KT 5000 HZFU BKN090

Obserwacja i prognoza pogody dla ponad 4000 lotnisk (raport METAR i TAF).

Dostępne stacje oznaczono żółtymi i czerwonymi punktami na mapie.

Najedź kursorem aby zobaczyć nazwę stacji.

Kliknij aby zobaczyć obserwacje i prognozy pogody.

Aby zmienić mapę: kliknij na zielony przycisk z czarnym krzyżykiem, aby powiększyć; na zielony przycisk z myślnikiem, aby pomniejszyć; na zielone strzałki, aby przejść do map sąsiednich.


METAR-TAF: